sensor_id;sensor_type;location;lat;lon;timestamp;pressure;altitude;pressure_sealevel;temperature;humidity
73242;BME280;65659;49.234;-2.094;2023-04-06T00:01:34;100689.34;;;13.66;48.70
73242;BME280;65659;49.234;-2.094;2023-04-06T00:03:58;100684.80;;;13.71;48.75
73242;BME280;65659;49.234;-2.094;2023-04-06T00:06:23;100688.66;;;13.19;48.89
73242;BME280;65659;49.234;-2.094;2023-04-06T00:08:49;100683.56;;;13.47;48.87
73242;BME280;65659;49.234;-2.094;2023-04-06T00:11:14;100681.34;;;13.78;48.91
73242;BME280;65659;49.234;-2.094;2023-04-06T00:13:39;100674.78;;;13.69;49.14
73242;BME280;65659;49.234;-2.094;2023-04-06T00:16:06;100679.48;;;13.77;49.14
73242;BME280;65659;49.234;-2.094;2023-04-06T00:18:30;100679.36;;;13.29;49.06
73242;BME280;65659;49.234;-2.094;2023-04-06T00:20:55;100688.23;;;13.74;49.06
73242;BME280;65659;49.234;-2.094;2023-04-06T00:23:20;100679.01;;;13.19;49.08
73242;BME280;65659;49.234;-2.094;2023-04-06T00:25:46;100676.90;;;13.26;49.01
73242;BME280;65659;49.234;-2.094;2023-04-06T00:28:12;100671.19;;;13.32;49.28
73242;BME280;65659;49.234;-2.094;2023-04-06T00:30:37;100668.94;;;13.55;48.96
73242;BME280;65659;49.234;-2.094;2023-04-06T00:33:03;100666.37;;;13.43;49.12
73242;BME280;65659;49.234;-2.094;2023-04-06T00:35:28;100667.51;;;13.50;48.95
73242;BME280;65659;49.234;-2.094;2023-04-06T00:37:53;100657.81;;;13.45;48.98
73242;BME280;65659;49.234;-2.094;2023-04-06T00:40:18;100650.99;;;13.42;49.17
73242;BME280;65659;49.234;-2.094;2023-04-06T00:42:44;100652.31;;;13.77;49.10
73242;BME280;65659;49.234;-2.094;2023-04-06T00:45:10;100652.21;;;13.12;49.48
73242;BME280;65659;49.234;-2.094;2023-04-06T00:47:34;100654.40;;;13.30;49.41
73242;BME280;65659;49.234;-2.094;2023-04-06T00:49:59;100656.82;;;13.51;49.55
73242;BME280;65659;49.234;-2.094;2023-04-06T00:52:25;100655.63;;;13.54;49.59
73242;BME280;65659;49.234;-2.094;2023-04-06T00:54:51;100650.08;;;13.59;49.67
73242;BME280;65659;49.234;-2.094;2023-04-06T00:57:16;100644.40;;;13.45;50.02
73242;BME280;65659;49.234;-2.094;2023-04-06T00:59:41;100641.70;;;13.41;50.19
73242;BME280;65659;49.234;-2.094;2023-04-06T01:02:07;100636.11;;;13.31;50.01
73242;BME280;65659;49.234;-2.094;2023-04-06T01:04:32;100640.16;;;13.68;50.23
73242;BME280;65659;49.234;-2.094;2023-04-06T01:06:57;100636.23;;;13.67;49.87
73242;BME280;65659;49.234;-2.094;2023-04-06T01:09:23;100635.84;;;13.54;50.08
73242;BME280;65659;49.234;-2.094;2023-04-06T01:11:48;100634.44;;;13.54;50.28
73242;BME280;65659;49.234;-2.094;2023-04-06T01:14:14;100634.50;;;13.26;50.53
73242;BME280;65659;49.234;-2.094;2023-04-06T01:16:40;100634.35;;;13.59;50.32
73242;BME280;65659;49.234;-2.094;2023-04-06T01:19:07;100628.86;;;13.54;50.42
73242;BME280;65659;49.234;-2.094;2023-04-06T01:21:29;100630.04;;;13.10;50.89
73242;BME280;65659;49.234;-2.094;2023-04-06T01:23:55;100630.23;;;13.55;50.57
73242;BME280;65659;49.234;-2.094;2023-04-06T01:26:20;100626.39;;;13.18;50.83
73242;BME280;65659;49.234;-2.094;2023-04-06T01:28:45;100621.61;;;13.31;50.66
73242;BME280;65659;49.234;-2.094;2023-04-06T01:31:11;100619.24;;;13.38;50.57
73242;BME280;65659;49.234;-2.094;2023-04-06T01:33:36;100607.37;;;13.67;50.70
73242;BME280;65659;49.234;-2.094;2023-04-06T01:36:02;100609.97;;;13.82;50.77
73242;BME280;65659;49.234;-2.094;2023-04-06T01:38:27;100607.94;;;13.50;50.93
73242;BME280;65659;49.234;-2.094;2023-04-06T01:40:53;100603.01;;;13.70;50.55
73242;BME280;65659;49.234;-2.094;2023-04-06T01:43:18;100600.22;;;13.65;50.63
73242;BME280;65659;49.234;-2.094;2023-04-06T01:45:43;100596.83;;;13.51;50.46
73242;BME280;65659;49.234;-2.094;2023-04-06T01:48:09;100597.74;;;13.94;50.42
73242;BME280;65659;49.234;-2.094;2023-04-06T01:50:34;100593.93;;;13.52;50.42
73242;BME280;65659;49.234;-2.094;2023-04-06T01:53:00;100593.94;;;13.50;50.39
73242;BME280;65659;49.234;-2.094;2023-04-06T01:55:25;100589.38;;;13.70;50.51
73242;BME280;65659;49.234;-2.094;2023-04-06T01:57:51;100588.57;;;13.65;50.43
73242;BME280;65659;49.234;-2.094;2023-04-06T02:00:17;100585.17;;;13.86;50.12
73242;BME280;65659;49.234;-2.094;2023-04-06T02:02:42;100586.59;;;13.84;50.11
73242;BME280;65659;49.234;-2.094;2023-04-06T02:05:07;100584.13;;;13.77;49.99
73242;BME280;65659;49.234;-2.094;2023-04-06T02:07:33;100580.81;;;13.81;49.79
73242;BME280;65659;49.234;-2.094;2023-04-06T02:09:58;100583.13;;;13.87;49.51
73242;BME280;65659;49.234;-2.094;2023-04-06T02:12:24;100580.49;;;13.70;49.44
73242;BME280;65659;49.234;-2.094;2023-04-06T02:14:49;100583.20;;;13.83;49.52
73242;BME280;65659;49.234;-2.094;2023-04-06T02:17:14;100578.95;;;13.92;49.46
73242;BME280;65659;49.234;-2.094;2023-04-06T02:19:39;100569.65;;;13.69;49.62
73242;BME280;65659;49.234;-2.094;2023-04-06T02:22:04;100573.11;;;13.70;50.09
73242;BME280;65659;49.234;-2.094;2023-04-06T02:24:30;100567.53;;;13.89;50.34
73242;BME280;65659;49.234;-2.094;2023-04-06T02:26:55;100567.05;;;13.46;50.39
73242;BME280;65659;49.234;-2.094;2023-04-06T02:29:21;100563.02;;;13.59;50.29
73242;BME280;65659;49.234;-2.094;2023-04-06T02:31:46;100562.15;;;13.52;50.49
73242;BME280;65659;49.234;-2.094;2023-04-06T02:34:11;100559.49;;;13.68;50.31
73242;BME280;65659;49.234;-2.094;2023-04-06T02:36:37;100556.12;;;13.70;50.47
73242;BME280;65659;49.234;-2.094;2023-04-06T02:39:02;100563.55;;;13.61;50.61
73242;BME280;65659;49.234;-2.094;2023-04-06T02:41:28;100551.48;;;13.78;50.46
73242;BME280;65659;49.234;-2.094;2023-04-06T02:43:53;100547.75;;;14.01;50.51
73242;BME280;65659;49.234;-2.094;2023-04-06T02:46:19;100546.26;;;13.86;51.00
73242;BME280;65659;49.234;-2.094;2023-04-06T02:48:44;100549.64;;;13.73;50.86
73242;BME280;65659;49.234;-2.094;2023-04-06T02:51:10;100549.38;;;13.28;51.89
73242;BME280;65659;49.234;-2.094;2023-04-06T02:53:35;100555.21;;;13.93;51.29
73242;BME280;65659;49.234;-2.094;2023-04-06T02:56:01;100555.13;;;13.62;51.69
73242;BME280;65659;49.234;-2.094;2023-04-06T02:58:26;100556.52;;;13.80;51.55
73242;BME280;65659;49.234;-2.094;2023-04-06T03:00:52;100545.56;;;13.76;51.79
73242;BME280;65659;49.234;-2.094;2023-04-06T03:03:17;100549.11;;;13.82;51.79
73242;BME280;65659;49.234;-2.094;2023-04-06T03:05:43;100541.84;;;13.84;51.95
73242;BME280;65659;49.234;-2.094;2023-04-06T03:08:08;100545.79;;;13.83;51.61
73242;BME280;65659;49.234;-2.094;2023-04-06T03:10:34;100545.80;;;14.10;51.65
73242;BME280;65659;49.234;-2.094;2023-04-06T03:12:59;100545.80;;;14.08;51.82
73242;BME280;65659;49.234;-2.094;2023-04-06T03:15:25;100540.18;;;14.23;51.57
73242;BME280;65659;49.234;-2.094;2023-04-06T03:17:50;100539.58;;;14.04;52.09
73242;BME280;65659;49.234;-2.094;2023-04-06T03:20:16;100528.99;;;13.84;52.05
73242;BME280;65659;49.234;-2.094;2023-04-06T03:22:41;100534.67;;;13.79;52.29
73242;BME280;65659;49.234;-2.094;2023-04-06T03:25:07;100527.55;;;14.32;51.85
73242;BME280;65659;49.234;-2.094;2023-04-06T03:27:32;100532.71;;;14.37;51.85
73242;BME280;65659;49.234;-2.094;2023-04-06T03:29:58;100532.52;;;14.33;52.02
73242;BME280;65659;49.234;-2.094;2023-04-06T03:32:23;100531.48;;;14.40;52.12
73242;BME280;65659;49.234;-2.094;2023-04-06T03:34:49;100523.06;;;14.40;52.30
73242;BME280;65659;49.234;-2.094;2023-04-06T03:37:14;100523.81;;;14.52;52.16
73242;BME280;65659;49.234;-2.094;2023-04-06T03:39:39;100525.93;;;14.62;52.01
73242;BME280;65659;49.234;-2.094;2023-04-06T03:42:04;100521.10;;;14.26;52.27
73242;BME280;65659;49.234;-2.094;2023-04-06T03:44:30;100520.48;;;14.59;52.36
73242;BME280;65659;49.234;-2.094;2023-04-06T03:46:55;100516.96;;;14.41;52.88
73242;BME280;65659;49.234;-2.094;2023-04-06T03:49:20;100518.61;;;14.58;52.05
73242;BME280;65659;49.234;-2.094;2023-04-06T03:51:46;100504.47;;;14.54;52.57
73242;BME280;65659;49.234;-2.094;2023-04-06T03:54:11;100508.15;;;14.15;52.59
73242;BME280;65659;49.234;-2.094;2023-04-06T03:56:36;100511.90;;;14.91;52.08
73242;BME280;65659;49.234;-2.094;2023-04-06T03:59:02;100515.14;;;14.31;52.38
73242;BME280;65659;49.234;-2.094;2023-04-06T04:01:27;100520.08;;;14.46;52.16
73242;BME280;65659;49.234;-2.094;2023-04-06T04:03:53;100517.23;;;14.34;52.34
73242;BME280;65659;49.234;-2.094;2023-04-06T04:06:17;100525.36;;;14.71;52.17
73242;BME280;65659;49.234;-2.094;2023-04-06T04:08:43;100529.61;;;14.90;52.30
73242;BME280;65659;49.234;-2.094;2023-04-06T04:11:09;100536.55;;;14.81;52.07
73242;BME280;65659;49.234;-2.094;2023-04-06T04:13:34;100535.31;;;14.92;52.29
73242;BME280;65659;49.234;-2.094;2023-04-06T04:15:59;100531.63;;;14.48;52.61
73242;BME280;65659;49.234;-2.094;2023-04-06T04:18:24;100534.50;;;14.64;52.06
73242;BME280;65659;49.234;-2.094;2023-04-06T04:20:50;100533.16;;;14.91;52.48
73242;BME280;65659;49.234;-2.094;2023-04-06T04:23:16;100523.43;;;14.65;51.98
73242;BME280;65659;49.234;-2.094;2023-04-06T04:25:41;100528.39;;;15.27;51.77
73242;BME280;65659;49.234;-2.094;2023-04-06T04:28:06;100519.86;;;14.59;52.17
73242;BME280;65659;49.234;-2.094;2023-04-06T04:30:31;100523.92;;;14.67;51.99
73242;BME280;65659;49.234;-2.094;2023-04-06T04:32:57;100522.77;;;15.07;51.66
73242;BME280;65659;49.234;-2.094;2023-04-06T04:35:22;100518.39;;;14.84;51.62
73242;BME280;65659;49.234;-2.094;2023-04-06T04:37:47;100520.23;;;14.68;52.01
73242;BME280;65659;49.234;-2.094;2023-04-06T04:40:13;100520.58;;;14.76;51.76
73242;BME280;65659;49.234;-2.094;2023-04-06T04:42:38;100519.74;;;14.77;51.64
73242;BME280;65659;49.234;-2.094;2023-04-06T04:45:04;100516.75;;;14.67;51.64
73242;BME280;65659;49.234;-2.094;2023-04-06T04:47:29;100511.94;;;14.87;51.20
73242;BME280;65659;49.234;-2.094;2023-04-06T04:49:54;100504.41;;;14.50;51.81
73242;BME280;65659;49.234;-2.094;2023-04-06T04:52:20;100504.01;;;14.68;51.37
73242;BME280;65659;49.234;-2.094;2023-04-06T04:54:45;100507.40;;;14.69;51.31
73242;BME280;65659;49.234;-2.094;2023-04-06T04:57:10;100505.06;;;14.96;51.31
73242;BME280;65659;49.234;-2.094;2023-04-06T04:59:36;100506.73;;;14.66;51.46
73242;BME280;65659;49.234;-2.094;2023-04-06T05:02:01;100508.84;;;14.76;51.28
73242;BME280;65659;49.234;-2.094;2023-04-06T05:04:26;100502.64;;;14.35;52.07
73242;BME280;65659;49.234;-2.094;2023-04-06T05:07:03;100508.85;;;14.75;51.32
73242;BME280;65659;49.234;-2.094;2023-04-06T05:09:18;100505.44;;;14.70;51.47
73242;BME280;65659;49.234;-2.094;2023-04-06T05:11:43;100503.53;;;14.67;51.47
73242;BME280;65659;49.234;-2.094;2023-04-06T05:14:09;100508.65;;;14.61;51.59
73242;BME280;65659;49.234;-2.094;2023-04-06T05:16:34;100504.21;;;14.70;51.40
73242;BME280;65659;49.234;-2.094;2023-04-06T05:18:59;100496.93;;;14.60;51.54
73242;BME280;65659;49.234;-2.094;2023-04-06T05:21:24;100492.35;;;15.10;51.39
73242;BME280;65659;49.234;-2.094;2023-04-06T05:23:49;100494.53;;;14.56;51.44
73242;BME280;65659;49.234;-2.094;2023-04-06T05:26:14;100496.08;;;14.76;51.03
73242;BME280;65659;49.234;-2.094;2023-04-06T05:28:39;100504.65;;;14.60;51.27
73242;BME280;65659;49.234;-2.094;2023-04-06T05:31:05;100499.25;;;14.77;50.92
73242;BME280;65659;49.234;-2.094;2023-04-06T05:33:30;100495.01;;;15.01;50.77
73242;BME280;65659;49.234;-2.094;2023-04-06T05:35:55;100495.16;;;14.72;50.78
73242;BME280;65659;49.234;-2.094;2023-04-06T05:38:20;100497.40;;;14.73;50.73
73242;BME280;65659;49.234;-2.094;2023-04-06T05:40:45;100500.97;;;14.76;50.64
73242;BME280;65659;49.234;-2.094;2023-04-06T05:43:12;100497.37;;;14.68;50.63
73242;BME280;65659;49.234;-2.094;2023-04-06T05:45:36;100502.35;;;14.72;50.58
73242;BME280;65659;49.234;-2.094;2023-04-06T05:48:01;100504.26;;;14.92;50.57
73242;BME280;65659;49.234;-2.094;2023-04-06T05:50:26;100510.42;;;14.45;50.51
73242;BME280;65659;49.234;-2.094;2023-04-06T05:52:51;100509.04;;;14.70;50.42
73242;BME280;65659;49.234;-2.094;2023-04-06T05:55:16;100511.69;;;14.62;50.36
73242;BME280;65659;49.234;-2.094;2023-04-06T05:57:41;100511.80;;;14.62;50.34
73242;BME280;65659;49.234;-2.094;2023-04-06T06:00:07;100506.58;;;14.54;50.36
73242;BME280;65659;49.234;-2.094;2023-04-06T06:02:31;100517.10;;;14.65;50.29
73242;BME280;65659;49.234;-2.094;2023-04-06T06:04:57;100522.74;;;14.62;50.38
73242;BME280;65659;49.234;-2.094;2023-04-06T06:07:22;100533.20;;;14.60;50.46
73242;BME280;65659;49.234;-2.094;2023-04-06T06:09:47;100544.69;;;14.60;50.64
73242;BME280;65659;49.234;-2.094;2023-04-06T06:12:13;100547.06;;;14.61;50.70
73242;BME280;65659;49.234;-2.094;2023-04-06T06:14:38;100546.49;;;14.66;50.71
73242;BME280;65659;49.234;-2.094;2023-04-06T06:17:04;100546.55;;;14.64;50.68
73242;BME280;65659;49.234;-2.094;2023-04-06T06:19:29;100546.82;;;14.68;50.57
73242;BME280;65659;49.234;-2.094;2023-04-06T06:21:54;100552.25;;;14.68;50.53
73242;BME280;65659;49.234;-2.094;2023-04-06T06:24:19;100556.57;;;14.69;50.39
73242;BME280;65659;49.234;-2.094;2023-04-06T06:26:45;100564.44;;;14.98;50.21
73242;BME280;65659;49.234;-2.094;2023-04-06T06:29:10;100568.44;;;14.71;50.16
73242;BME280;65659;49.234;-2.094;2023-04-06T06:31:35;100575.32;;;14.74;50.14
73242;BME280;65659;49.234;-2.094;2023-04-06T06:34:00;100574.07;;;14.73;50.13
73242;BME280;65659;49.234;-2.094;2023-04-06T06:36:26;100575.54;;;14.73;50.02
73242;BME280;65659;49.234;-2.094;2023-04-06T06:38:51;100574.21;;;14.77;49.94
73242;BME280;65659;49.234;-2.094;2023-04-06T06:41:16;100584.69;;;14.68;49.90
73242;BME280;65659;49.234;-2.094;2023-04-06T06:43:42;100576.68;;;14.75;49.87
73242;BME280;65659;49.234;-2.094;2023-04-06T06:46:08;100587.60;;;14.85;49.89
73242;BME280;65659;49.234;-2.094;2023-04-06T06:48:33;100578.76;;;15.09;49.64
73242;BME280;65659;49.234;-2.094;2023-04-06T06:50:59;100584.53;;;14.94;49.42
73242;BME280;65659;49.234;-2.094;2023-04-06T06:53:24;100579.69;;;15.12;49.26
73242;BME280;65659;49.234;-2.094;2023-04-06T06:55:50;100568.67;;;14.93;49.19
73242;BME280;65659;49.234;-2.094;2023-04-06T06:58:15;100573.55;;;14.93;49.04
73242;BME280;65659;49.234;-2.094;2023-04-06T07:00:40;100569.93;;;14.81;48.57
73242;BME280;65659;49.234;-2.094;2023-04-06T07:03:05;100584.02;;;15.05;48.17
73242;BME280;65659;49.234;-2.094;2023-04-06T07:05:31;100591.73;;;15.13;48.08
73242;BME280;65659;49.234;-2.094;2023-04-06T07:07:56;100594.28;;;15.32;47.74
73242;BME280;65659;49.234;-2.094;2023-04-06T07:10:22;100602.15;;;15.43;47.31
73242;BME280;65659;49.234;-2.094;2023-04-06T07:12:48;100597.41;;;15.44;47.23
73242;BME280;65659;49.234;-2.094;2023-04-06T07:15:12;100606.73;;;15.24;47.11
73242;BME280;65659;49.234;-2.094;2023-04-06T07:17:39;100601.80;;;15.60;46.91
73242;BME280;65659;49.234;-2.094;2023-04-06T07:20:04;100601.62;;;15.24;46.80
73242;BME280;65659;49.234;-2.094;2023-04-06T07:22:29;100606.46;;;15.73;46.93
73242;BME280;65659;49.234;-2.094;2023-04-06T07:24:56;100602.23;;;15.08;46.92
73242;BME280;65659;49.234;-2.094;2023-04-06T07:27:19;100608.14;;;15.51;46.53
73242;BME280;65659;49.234;-2.094;2023-04-06T07:29:45;100610.58;;;15.32;46.27
73242;BME280;65659;49.234;-2.094;2023-04-06T07:32:11;100606.12;;;15.82;45.92
73242;BME280;65659;49.234;-2.094;2023-04-06T07:34:35;100608.04;;;15.54;45.92
73242;BME280;65659;49.234;-2.094;2023-04-06T07:37:01;100603.68;;;15.69;45.72
73242;BME280;65659;49.234;-2.094;2023-04-06T07:39:26;100600.66;;;16.08;45.71
73242;BME280;65659;49.234;-2.094;2023-04-06T07:41:52;100606.16;;;16.21;45.64
73242;BME280;65659;49.234;-2.094;2023-04-06T07:44:17;100607.64;;;15.78;45.52
73242;BME280;65659;49.234;-2.094;2023-04-06T07:46:42;100615.10;;;15.88;44.92
73242;BME280;65659;49.234;-2.094;2023-04-06T07:49:07;100608.99;;;16.11;44.47
73242;BME280;65659;49.234;-2.094;2023-04-06T07:51:32;100611.96;;;15.91;44.44
73242;BME280;65659;49.234;-2.094;2023-04-06T07:53:58;100624.51;;;15.94;44.04
73242;BME280;65659;49.234;-2.094;2023-04-06T07:56:23;100621.50;;;16.51;43.88
73242;BME280;65659;49.234;-2.094;2023-04-06T07:58:50;100633.62;;;16.14;43.88
73242;BME280;65659;49.234;-2.094;2023-04-06T08:01:14;100630.13;;;15.91;43.39
73242;BME280;65659;49.234;-2.094;2023-04-06T08:03:39;100637.19;;;16.32;43.30
73242;BME280;65659;49.234;-2.094;2023-04-06T08:06:04;100634.43;;;16.33;42.84
73242;BME280;65659;49.234;-2.094;2023-04-06T08:08:30;100641.35;;;16.09;42.67
73242;BME280;65659;49.234;-2.094;2023-04-06T08:10:55;100642.27;;;16.22;42.32
73242;BME280;65659;49.234;-2.094;2023-04-06T08:13:20;100648.44;;;16.46;42.25
73242;BME280;65659;49.234;-2.094;2023-04-06T08:15:46;100636.51;;;16.12;42.10
73242;BME280;65659;49.234;-2.094;2023-04-06T08:18:12;100637.16;;;16.15;41.89
73242;BME280;65659;49.234;-2.094;2023-04-06T08:20:37;100634.91;;;16.41;42.13
73242;BME280;65659;49.234;-2.094;2023-04-06T08:23:02;100641.12;;;16.41;42.38
73242;BME280;65659;49.234;-2.094;2023-04-06T08:25:26;100641.22;;;16.94;42.98
73242;BME280;65659;49.234;-2.094;2023-04-06T08:27:52;100628.25;;;15.57;43.26
73242;BME280;65659;49.234;-2.094;2023-04-06T08:30:17;100639.12;;;15.86;42.27
73242;BME280;65659;49.234;-2.094;2023-04-06T08:32:42;100647.25;;;16.00;42.02
73242;BME280;65659;49.234;-2.094;2023-04-06T08:35:08;100644.00;;;16.51;41.64
73242;BME280;65659;49.234;-2.094;2023-04-06T08:37:34;100639.86;;;16.59;41.51
73242;BME280;65659;49.234;-2.094;2023-04-06T08:39:58;100642.01;;;16.54;41.30
73242;BME280;65659;49.234;-2.094;2023-04-06T08:42:25;100634.31;;;16.41;41.15
73242;BME280;65659;49.234;-2.094;2023-04-06T08:44:49;100629.58;;;16.83;40.65
73242;BME280;65659;49.234;-2.094;2023-04-06T08:47:13;100634.64;;;16.87;40.72
73242;BME280;65659;49.234;-2.094;2023-04-06T08:49:38;100638.92;;;16.57;40.60
73242;BME280;65659;49.234;-2.094;2023-04-06T08:52:06;100641.16;;;16.58;40.76
73242;BME280;65659;49.234;-2.094;2023-04-06T08:54:29;100646.04;;;17.07;40.61
73242;BME280;65659;49.234;-2.094;2023-04-06T08:56:55;100649.49;;;17.20;40.53
73242;BME280;65659;49.234;-2.094;2023-04-06T08:59:20;100653.76;;;17.43;40.25
73242;BME280;65659;49.234;-2.094;2023-04-06T09:01:46;100653.15;;;17.51;40.02
73242;BME280;65659;49.234;-2.094;2023-04-06T09:04:11;100649.61;;;17.32;39.74
73242;BME280;65659;49.234;-2.094;2023-04-06T09:06:37;100664.05;;;17.53;39.88
73242;BME280;65659;49.234;-2.094;2023-04-06T09:09:02;100652.31;;;17.39;39.59
73242;BME280;65659;49.234;-2.094;2023-04-06T09:11:28;100649.39;;;17.03;39.64
73242;BME280;65659;49.234;-2.094;2023-04-06T09:13:55;100662.60;;;17.52;39.08
73242;BME280;65659;49.234;-2.094;2023-04-06T09:16:20;100649.06;;;17.57;39.14
73242;BME280;65659;49.234;-2.094;2023-04-06T09:18:45;100658.91;;;17.18;39.22
73242;BME280;65659;49.234;-2.094;2023-04-06T09:21:11;100664.02;;;17.34;39.10
73242;BME280;65659;49.234;-2.094;2023-04-06T09:23:37;100655.21;;;17.54;38.95
73242;BME280;65659;49.234;-2.094;2023-04-06T09:26:06;100654.71;;;17.64;39.14
73242;BME280;65659;49.234;-2.094;2023-04-06T09:28:27;100660.51;;;17.42;39.29
73242;BME280;65659;49.234;-2.094;2023-04-06T09:30:52;100661.85;;;17.43;39.08
73242;BME280;65659;49.234;-2.094;2023-04-06T09:33:23;100665.65;;;17.42;39.15
73242;BME280;65659;49.234;-2.094;2023-04-06T09:35:49;100661.05;;;17.20;39.14
73242;BME280;65659;49.234;-2.094;2023-04-06T09:38:12;100671.57;;;17.47;39.30
73242;BME280;65659;49.234;-2.094;2023-04-06T09:40:35;100674.16;;;17.24;38.60
73242;BME280;65659;49.234;-2.094;2023-04-06T09:43:01;100668.59;;;17.50;38.16
73242;BME280;65659;49.234;-2.094;2023-04-06T09:45:27;100665.90;;;17.37;38.62
73242;BME280;65659;49.234;-2.094;2023-04-06T09:47:51;100676.56;;;17.52;38.51
73242;BME280;65659;49.234;-2.094;2023-04-06T09:50:16;100680.39;;;17.57;37.61
73242;BME280;65659;49.234;-2.094;2023-04-06T09:52:46;100671.69;;;17.71;37.60
73242;BME280;65659;49.234;-2.094;2023-04-06T09:55:08;100678.98;;;17.56;37.69
73242;BME280;65659;49.234;-2.094;2023-04-06T09:57:37;100675.58;;;17.51;37.54
73242;BME280;65659;49.234;-2.094;2023-04-06T10:00:03;100670.72;;;17.30;37.52
73242;BME280;65659;49.234;-2.094;2023-04-06T10:02:28;100686.06;;;17.60;37.28
73242;BME280;65659;49.234;-2.094;2023-04-06T10:04:54;100676.20;;;17.79;36.98
73242;BME280;65659;49.234;-2.094;2023-04-06T10:07:14;100675.62;;;17.57;36.94
73242;BME280;65659;49.234;-2.094;2023-04-06T10:09:40;100676.97;;;17.83;37.10
73242;BME280;65659;49.234;-2.094;2023-04-06T10:12:07;100687.05;;;17.31;37.50
73242;BME280;65659;49.234;-2.094;2023-04-06T10:14:33;100685.89;;;17.54;37.21
73242;BME280;65659;49.234;-2.094;2023-04-06T10:16:57;100683.33;;;17.80;37.06
73242;BME280;65659;49.234;-2.094;2023-04-06T10:19:26;100693.56;;;17.68;37.29
73242;BME280;65659;49.234;-2.094;2023-04-06T10:21:53;100691.87;;;17.60;36.96
73242;BME280;65659;49.234;-2.094;2023-04-06T10:24:14;100691.88;;;17.54;36.79
73242;BME280;65659;49.234;-2.094;2023-04-06T10:26:40;100691.67;;;18.04;36.93
73242;BME280;65659;49.234;-2.094;2023-04-06T10:29:06;100692.36;;;17.85;36.90
73242;BME280;65659;49.234;-2.094;2023-04-06T10:31:30;100697.84;;;18.05;36.50
73242;BME280;65659;49.234;-2.094;2023-04-06T10:33:57;100692.66;;;17.70;36.75
73242;BME280;65659;49.234;-2.094;2023-04-06T10:36:23;100694.58;;;17.44;36.75
73242;BME280;65659;49.234;-2.094;2023-04-06T10:38:53;100697.35;;;17.86;35.87
73242;BME280;65659;49.234;-2.094;2023-04-06T10:41:16;100695.17;;;17.92;35.89
73242;BME280;65659;49.234;-2.094;2023-04-06T10:43:39;100694.96;;;18.13;35.70
73242;BME280;65659;49.234;-2.094;2023-04-06T10:46:05;100696.66;;;17.75;36.04
73242;BME280;65659;49.234;-2.094;2023-04-06T10:48:37;100684.35;;;18.14;35.68
73242;BME280;65659;49.234;-2.094;2023-04-06T10:50:55;100690.09;;;18.13;35.70
73242;BME280;65659;49.234;-2.094;2023-04-06T10:53:22;100687.48;;;18.05;36.16
73242;BME280;65659;49.234;-2.094;2023-04-06T10:55:47;100695.67;;;17.93;36.26
73242;BME280;65659;49.234;-2.094;2023-04-06T10:58:12;100686.03;;;17.90;35.71
73242;BME280;65659;49.234;-2.094;2023-04-06T11:00:36;100684.96;;;18.09;35.75
73242;BME280;65659;49.234;-2.094;2023-04-06T11:03:02;100687.73;;;17.98;35.65
73242;BME280;65659;49.234;-2.094;2023-04-06T11:05:27;100701.05;;;18.01;35.51
73242;BME280;65659;49.234;-2.094;2023-04-06T11:07:53;100689.22;;;17.65;35.40
73242;BME280;65659;49.234;-2.094;2023-04-06T11:10:22;100691.67;;;18.28;35.58
73242;BME280;65659;49.234;-2.094;2023-04-06T11:12:44;100691.96;;;17.94;35.64
73242;BME280;65659;49.234;-2.094;2023-04-06T11:15:10;100705.63;;;17.92;35.78
73242;BME280;65659;49.234;-2.094;2023-04-06T11:17:36;100694.69;;;18.04;36.04
73242;BME280;65659;49.234;-2.094;2023-04-06T11:20:01;100699.95;;;17.80;36.37
73242;BME280;65659;49.234;-2.094;2023-04-06T11:22:27;100711.17;;;18.00;36.01
73242;BME280;65659;49.234;-2.094;2023-04-06T11:24:52;100699.07;;;17.94;35.84
73242;BME280;65659;49.234;-2.094;2023-04-06T11:27:18;100698.01;;;17.87;36.02
73242;BME280;65659;49.234;-2.094;2023-04-06T11:29:44;100695.58;;;18.21;36.08
73242;BME280;65659;49.234;-2.094;2023-04-06T11:32:09;100695.83;;;17.88;36.38
73242;BME280;65659;49.234;-2.094;2023-04-06T11:34:36;100708.44;;;18.06;35.94
73242;BME280;65659;49.234;-2.094;2023-04-06T11:37:02;100708.58;;;17.98;35.94
73242;BME280;65659;49.234;-2.094;2023-04-06T11:39:27;100706.41;;;17.69;36.20
73242;BME280;65659;49.234;-2.094;2023-04-06T11:41:53;100693.98;;;17.99;35.80
73242;BME280;65659;49.234;-2.094;2023-04-06T11:44:28;100709.30;;;17.94;35.59
73242;BME280;65659;49.234;-2.094;2023-04-06T11:46:52;100702.89;;;17.78;36.06
73242;BME280;65659;49.234;-2.094;2023-04-06T11:49:08;100707.29;;;17.99;35.99
73242;BME280;65659;49.234;-2.094;2023-04-06T11:51:36;100701.44;;;17.77;35.50
73242;BME280;65659;49.234;-2.094;2023-04-06T11:53:59;100719.77;;;17.64;35.76
73242;BME280;65659;49.234;-2.094;2023-04-06T11:56:26;100711.52;;;17.78;35.76
73242;BME280;65659;49.234;-2.094;2023-04-06T11:58:50;100714.02;;;18.11;35.88
73242;BME280;65659;49.234;-2.094;2023-04-06T12:01:16;100713.85;;;17.17;35.58
73242;BME280;65659;49.234;-2.094;2023-04-06T12:03:41;100713.96;;;17.76;35.60
73242;BME280;65659;49.234;-2.094;2023-04-06T12:06:07;100707.96;;;17.43;35.50
73242;BME280;65659;49.234;-2.094;2023-04-06T12:08:32;100708.54;;;17.93;35.92
73242;BME280;65659;49.234;-2.094;2023-04-06T12:10:58;100711.83;;;17.93;36.18
73242;BME280;65659;49.234;-2.094;2023-04-06T12:13:23;100712.31;;;17.86;35.90
73242;BME280;65659;49.234;-2.094;2023-04-06T12:15:52;100702.31;;;17.72;35.91
73242;BME280;65659;49.234;-2.094;2023-04-06T12:18:14;100715.49;;;17.79;35.50
73242;BME280;65659;49.234;-2.094;2023-04-06T12:20:39;100715.34;;;18.33;35.06
73242;BME280;65659;49.234;-2.094;2023-04-06T12:23:04;100715.75;;;18.49;34.59
73242;BME280;65659;49.234;-2.094;2023-04-06T12:25:31;100713.24;;;18.27;33.94
73242;BME280;65659;49.234;-2.094;2023-04-06T12:27:56;100718.74;;;18.76;33.73
73242;BME280;65659;49.234;-2.094;2023-04-06T12:30:22;100722.62;;;17.99;32.98